createdAt,value
2022-10-28T00:04:14.784Z,20.40
2022-10-28T00:19:16.813Z,23.55
2022-10-28T00:34:21.416Z,18.98
2022-10-28T00:49:30.299Z,22.80
2022-10-28T01:04:32.599Z,19.87
2022-10-28T01:19:58.923Z,24.35
2022-10-28T01:35:00.751Z,23.02
2022-10-28T01:50:08.730Z,17.38
2022-10-28T02:05:40.109Z,22.02
2022-10-28T02:21:06.313Z,20.55
2022-10-28T02:36:14.001Z,22.98
2022-10-28T02:51:19.068Z,19.10
2022-10-28T03:06:21.055Z,19.65
2022-10-28T03:21:22.965Z,19.80
2022-10-28T03:36:24.896Z,21.40
2022-10-28T03:51:26.809Z,20.05
2022-10-28T04:06:28.654Z,17.65
2022-10-28T04:21:30.516Z,20.83
2022-10-28T04:36:32.384Z,25.33
2022-10-28T04:51:34.324Z,18.00
2022-10-28T05:06:36.245Z,17.33
2022-10-28T05:21:38.193Z,16.70
2022-10-28T05:36:40.165Z,16.75
2022-10-28T05:51:42.069Z,19.25
2022-10-28T06:06:43.956Z,19.73
2022-10-28T06:21:44.311Z,20.70
2022-10-28T06:36:47.141Z,20.83
2022-10-28T06:51:50.589Z,21.25
2022-10-28T07:06:55.866Z,19.98
2022-10-28T07:21:57.844Z,18.17
2022-10-28T07:36:59.874Z,15.55
2022-10-28T07:52:01.864Z,11.73
2022-10-28T08:07:03.765Z,9.75
2022-10-28T08:22:05.701Z,8.68
2022-10-28T08:37:07.704Z,9.13
2022-10-28T08:52:47.965Z,7.18
2022-10-28T09:07:50.802Z,3.70
2022-10-28T09:22:59.849Z,3.78
2022-10-28T09:38:25.898Z,3.03
2022-10-28T09:53:46.520Z,2.42
2022-10-28T10:08:48.481Z,3.05
2022-10-28T10:23:50.336Z,2.78
2022-10-28T10:38:54.725Z,2.20
2022-10-28T10:54:01.806Z,2.45
2022-10-28T11:09:25.162Z,2.22
2022-10-28T11:24:56.923Z,2.55
2022-10-28T11:40:18.510Z,2.55
2022-10-28T11:55:34.887Z,2.67
2022-10-28T12:10:39.832Z,2.40
2022-10-28T12:25:46.471Z,1.63
2022-10-28T12:41:15.827Z,2.05
2022-10-28T12:56:26.571Z,2.00
2022-10-28T13:11:35.133Z,1.83
2022-10-28T13:26:41.229Z,1.90
2022-10-28T13:41:46.222Z,2.15
2022-10-28T13:56:50.502Z,2.08
2022-10-28T14:12:30.232Z,1.92
2022-10-28T14:27:41.867Z,2.63
2022-10-28T14:42:52.729Z,2.13
2022-10-28T14:57:55.222Z,2.10
2022-10-28T15:12:58.968Z,2.58
2022-10-28T15:28:00.926Z,3.40
2022-10-28T15:43:05.223Z,3.45
2022-10-28T15:58:12.634Z,4.38
2022-10-28T16:13:25.135Z,4.80
2022-10-28T16:28:28.396Z,4.95
2022-10-28T16:43:31.285Z,5.18
2022-10-28T16:58:34.396Z,5.45
2022-10-28T17:13:36.366Z,5.90
2022-10-28T17:28:38.336Z,5.90
2022-10-28T17:43:40.378Z,7.03
2022-10-28T17:58:42.332Z,7.53
2022-10-28T18:13:46.127Z,8.57
2022-10-28T18:28:49.180Z,8.32
2022-10-28T18:43:59.965Z,8.35
2022-10-28T18:59:04.218Z,9.10
2022-10-28T19:14:06.728Z,8.32
2022-10-28T19:29:10.146Z,12.13
2022-10-28T19:44:12.053Z,10.32
2022-10-28T19:59:13.999Z,13.80
2022-10-28T20:14:16.112Z,11.48
2022-10-28T20:29:18.025Z,10.73
2022-10-28T20:44:20.075Z,10.30
2022-10-28T20:59:21.986Z,11.93
2022-10-28T21:14:23.930Z,8.73
2022-10-28T21:29:25.887Z,12.85
2022-10-28T21:44:27.821Z,13.70
2022-10-28T21:59:29.904Z,12.18
2022-10-28T22:14:32.708Z,10.88
2022-10-28T22:29:34.696Z,10.40
2022-10-28T22:44:36.594Z,10.05
2022-10-28T22:59:38.455Z,8.85
2022-10-28T23:14:40.334Z,9.00
2022-10-28T23:29:42.241Z,8.25
2022-10-28T23:44:44.988Z,8.90
2022-10-28T23:59:46.856Z,12.15
